createdAt,value
2018-07-10T00:02:22.867Z,3.00
2018-07-10T00:07:16.580Z,2.73
2018-07-10T00:09:59.717Z,3.23
2018-07-10T00:12:28.383Z,3.60
2018-07-10T00:14:58.221Z,3.17
2018-07-10T00:17:26.925Z,3.03
2018-07-10T00:19:56.814Z,3.40
2018-07-10T00:22:26.199Z,3.37
2018-07-10T00:24:55.293Z,3.07
2018-07-10T00:27:24.371Z,3.00
2018-07-10T00:29:53.465Z,2.90
2018-07-10T00:32:22.149Z,3.40
2018-07-10T00:34:56.128Z,3.30
2018-07-10T00:37:25.676Z,3.43
2018-07-10T00:39:54.330Z,3.17
2018-07-10T00:42:23.230Z,3.43
2018-07-10T00:44:51.932Z,3.33
2018-07-10T00:47:20.633Z,3.00
2018-07-10T00:49:49.407Z,2.57
2018-07-10T00:52:33.384Z,3.20
2018-07-10T00:55:03.264Z,3.00
2018-07-10T00:57:36.295Z,2.67
2018-07-10T01:00:05.766Z,2.97
2018-07-10T01:02:34.514Z,3.40
2018-07-10T01:05:04.175Z,3.10
2018-07-10T01:07:33.576Z,3.40
2018-07-10T01:10:02.848Z,3.27
2018-07-10T01:12:32.643Z,3.07
2018-07-10T01:15:01.463Z,3.33
2018-07-10T01:17:30.307Z,3.13
2018-07-10T01:19:59.675Z,3.30
2018-07-10T01:22:29.752Z,3.27
2018-07-10T01:24:58.638Z,3.23
2018-07-10T01:27:29.003Z,4.57
2018-07-10T01:29:57.760Z,3.30
2018-07-10T01:32:26.996Z,3.23
2018-07-10T01:34:55.830Z,3.00
2018-07-10T01:37:25.089Z,3.27
2018-07-10T01:39:54.485Z,3.20
2018-07-10T01:42:23.819Z,2.97
2018-07-10T01:44:52.708Z,3.20
2018-07-10T01:47:21.927Z,3.60
2018-07-10T01:49:51.056Z,2.70
2018-07-10T01:52:21.247Z,2.93
2018-07-10T01:54:50.158Z,2.97
2018-07-10T01:57:19.535Z,3.13
2018-07-10T01:59:50.072Z,3.20
2018-07-10T02:02:19.889Z,3.60
2018-07-10T02:04:49.872Z,3.43
2018-07-10T02:07:19.024Z,2.90
2018-07-10T02:09:48.324Z,3.20
2018-07-10T02:12:18.875Z,3.80
2018-07-10T02:14:47.852Z,3.33
2018-07-10T02:17:16.437Z,3.27
2018-07-10T02:19:45.126Z,3.13
2018-07-10T02:22:14.141Z,3.17
2018-07-10T02:24:42.903Z,3.87
2018-07-10T02:27:12.126Z,3.20
2018-07-10T02:29:40.969Z,3.20
2018-07-10T02:32:10.221Z,2.87
2018-07-10T02:34:38.939Z,2.90
2018-07-10T02:37:07.558Z,3.37
2018-07-10T02:39:36.838Z,3.37
2018-07-10T02:42:05.843Z,3.33
2018-07-10T02:44:34.604Z,3.20
2018-07-10T02:47:04.419Z,3.33
2018-07-10T02:49:33.231Z,3.77
2018-07-10T02:52:05.693Z,3.43
2018-07-10T02:54:36.674Z,3.83
2018-07-10T02:57:08.779Z,3.00
2018-07-10T02:59:40.548Z,3.93
2018-07-10T03:02:22.476Z,3.47
2018-07-10T03:04:57.023Z,3.53
2018-07-10T03:07:26.822Z,3.10
2018-07-10T03:09:57.068Z,3.10
2018-07-10T03:12:29.755Z,3.10
2018-07-10T03:15:02.981Z,3.13
2018-07-10T03:17:31.938Z,3.10
2018-07-10T03:20:01.575Z,3.20
2018-07-10T03:22:30.221Z,4.03
2018-07-10T03:24:59.111Z,3.53
2018-07-10T03:27:28.297Z,4.33
2018-07-10T03:29:58.228Z,6.43
2018-07-10T03:32:27.755Z,9.73
2018-07-10T03:34:57.213Z,11.40
2018-07-10T03:37:26.888Z,9.47
2018-07-10T03:39:55.887Z,9.33
2018-07-10T03:42:26.354Z,7.60
2018-07-10T03:44:56.085Z,7.70
2018-07-10T03:47:26.557Z,8.57
2018-07-10T03:49:56.068Z,7.30
2018-07-10T03:52:31.788Z,8.97
2018-07-10T03:55:03.457Z,4.80
2018-07-10T03:57:32.172Z,4.63
2018-07-10T04:00:06.436Z,5.30
2018-07-10T04:02:35.727Z,6.30
2018-07-10T04:05:04.407Z,5.33
2018-07-10T04:07:34.108Z,7.40
2018-07-10T04:10:03.862Z,8.27
2018-07-10T04:12:35.860Z,7.03
2018-07-10T04:15:06.517Z,6.93
2018-07-10T04:18:41.247Z,5.37
2018-07-10T04:21:28.902Z,3.77
2018-07-10T04:24:17.910Z,3.47
2018-07-10T04:27:22.448Z,3.87
2018-07-10T04:30:05.541Z,4.83
2018-07-10T04:32:36.253Z,4.07
2018-07-10T04:35:05.331Z,3.70
2018-07-10T04:37:35.804Z,3.43
2018-07-10T04:40:05.496Z,3.37
2018-07-10T04:42:42.448Z,4.17
2018-07-10T04:45:17.569Z,3.67
2018-07-10T04:47:57.701Z,3.73
2018-07-10T04:50:39.444Z,3.57
2018-07-10T04:53:29.562Z,3.60
2018-07-10T04:55:59.846Z,3.60
2018-07-10T04:58:29.524Z,3.23
2018-07-10T05:01:03.917Z,4.20
2018-07-10T05:03:33.147Z,4.07
2018-07-10T05:06:04.922Z,3.70
2018-07-10T05:08:34.713Z,3.63
2018-07-10T05:11:06.008Z,3.60
2018-07-10T05:13:36.556Z,3.43
2018-07-10T05:16:06.741Z,3.40
2018-07-10T05:18:37.786Z,3.60
2018-07-10T05:21:09.002Z,3.43
2018-07-10T05:23:37.879Z,4.30
2018-07-10T05:26:07.188Z,3.40
2018-07-10T05:28:35.924Z,3.50
2018-07-10T05:31:04.949Z,3.80
2018-07-10T05:33:34.788Z,3.50
2018-07-10T05:36:05.189Z,3.30
2018-07-10T05:38:42.308Z,3.20
2018-07-10T05:41:15.229Z,3.57
2018-07-10T05:43:49.913Z,3.83
2018-07-10T05:46:21.400Z,3.50
2018-07-10T05:49:00.440Z,3.63
2018-07-10T05:51:34.627Z,3.63
2018-07-10T05:54:06.302Z,3.97
2018-07-10T05:56:35.923Z,3.97
2018-07-10T05:59:07.388Z,3.50
2018-07-10T06:01:38.342Z,3.70
2018-07-10T06:04:12.159Z,3.63
2018-07-10T06:06:41.693Z,4.00
2018-07-10T06:09:10.690Z,3.50
2018-07-10T06:11:39.526Z,4.03
2018-07-10T06:14:09.417Z,3.80
2018-07-10T06:16:41.442Z,4.27
2018-07-10T06:19:10.615Z,4.80
2018-07-10T06:21:41.961Z,4.10
2018-07-10T06:24:12.664Z,4.40
2018-07-10T06:26:44.039Z,5.00
2018-07-10T06:29:16.701Z,5.00
2018-07-10T06:31:53.015Z,4.30
2018-07-10T06:34:33.735Z,4.67
2018-07-10T06:37:10.969Z,5.20
2018-07-10T06:39:40.321Z,4.53
2018-07-10T06:42:11.804Z,5.43
2018-07-10T06:44:40.600Z,4.90
2018-07-10T06:47:21.468Z,5.53
2018-07-10T06:49:50.318Z,5.70
2018-07-10T06:52:20.819Z,5.30
2018-07-10T06:55:07.011Z,5.77
2018-07-10T06:57:37.740Z,6.07
2018-07-10T07:00:09.058Z,6.17
2018-07-10T07:02:39.332Z,6.33
2018-07-10T07:05:09.228Z,6.33
2018-07-10T07:07:44.820Z,6.60
2018-07-10T07:10:14.691Z,6.10
2018-07-10T07:12:44.160Z,6.53
2018-07-10T07:15:14.560Z,7.50
2018-07-10T07:17:47.397Z,6.57
2018-07-10T07:20:16.068Z,7.20
2018-07-10T07:22:46.575Z,7.00
2018-07-10T07:25:16.294Z,7.67
2018-07-10T07:27:47.860Z,7.60
2018-07-10T07:30:25.852Z,7.07
2018-07-10T07:32:54.840Z,6.63
2018-07-10T07:35:23.635Z,6.93
2018-07-10T07:37:53.475Z,7.20
2018-07-10T07:40:26.623Z,6.70
2018-07-10T07:42:55.695Z,7.57
2018-07-10T07:45:25.061Z,7.43
2018-07-10T07:47:55.023Z,6.10
2018-07-10T07:50:23.799Z,7.10
2018-07-10T07:52:52.977Z,7.50
2018-07-10T07:55:22.622Z,7.47
2018-07-10T07:57:51.286Z,7.13
2018-07-10T08:00:20.263Z,7.20
2018-07-10T08:02:49.275Z,7.17
2018-07-10T08:05:19.086Z,7.60
2018-07-10T08:07:47.814Z,8.60
2018-07-10T08:10:17.772Z,7.80
2018-07-10T08:12:46.992Z,7.00
2018-07-10T08:15:17.707Z,8.10
2018-07-10T08:17:46.492Z,7.43
2018-07-10T08:20:15.341Z,7.17
2018-07-10T08:22:44.298Z,9.57
2018-07-10T08:25:14.213Z,9.17
2018-07-10T08:27:43.571Z,8.27
2018-07-10T08:30:13.006Z,9.87
2018-07-10T08:32:41.836Z,10.53
2018-07-10T08:35:10.617Z,10.20
2018-07-10T08:37:40.857Z,10.90
2018-07-10T08:40:09.469Z,11.00
2018-07-10T08:42:38.709Z,10.83
2018-07-10T08:45:07.661Z,9.90
2018-07-10T08:47:38.386Z,10.47
2018-07-10T08:50:07.572Z,10.07
2018-07-10T08:52:37.198Z,10.00
2018-07-10T08:55:07.547Z,10.30
2018-07-10T08:57:36.561Z,10.40
2018-07-10T09:00:05.730Z,10.03
2018-07-10T09:02:34.599Z,9.40
2018-07-10T09:05:04.219Z,11.47
2018-07-10T09:07:33.069Z,9.40
2018-07-10T09:10:02.100Z,10.33
2018-07-10T09:12:30.904Z,10.00
2018-07-10T09:15:00.151Z,9.97
2018-07-10T09:17:29.922Z,9.67
2018-07-10T09:20:04.702Z,9.53
2018-07-10T09:22:33.740Z,8.27
2018-07-10T09:25:05.210Z,8.73
2018-07-10T09:27:34.006Z,7.70
2018-07-10T09:30:02.854Z,7.30
2018-07-10T09:32:36.801Z,7.20
2018-07-10T09:35:07.260Z,7.50
2018-07-10T09:37:41.826Z,7.70
2018-07-10T09:40:19.240Z,6.70
2018-07-10T09:42:58.799Z,6.93
2018-07-10T09:45:29.222Z,7.10
2018-07-10T09:47:57.902Z,7.70
2018-07-10T09:50:26.600Z,8.43
2018-07-10T09:52:55.325Z,7.87
2018-07-10T09:55:24.147Z,7.30
2018-07-10T09:57:53.289Z,7.13
2018-07-10T10:00:27.785Z,6.90
2018-07-10T10:02:56.679Z,10.10
2018-07-10T10:05:26.097Z,10.00
2018-07-10T10:07:54.796Z,9.97
2018-07-10T10:10:23.635Z,10.20
2018-07-10T10:12:53.420Z,9.90
2018-07-10T10:15:27.446Z,11.23
2018-07-10T10:17:58.036Z,10.23
2018-07-10T10:20:31.978Z,11.57
2018-07-10T10:23:02.905Z,11.50
2018-07-10T10:25:34.398Z,11.83
2018-07-10T10:28:04.848Z,29.00
2018-07-10T10:30:34.027Z,17.40
2018-07-10T10:33:03.235Z,39.00
2018-07-10T10:35:32.817Z,12.13
2018-07-10T10:38:02.599Z,15.37
2018-07-10T10:40:33.943Z,12.70
2018-07-10T10:43:06.132Z,13.10
2018-07-10T10:45:36.637Z,12.30
2018-07-10T10:48:05.816Z,13.57
2018-07-10T10:50:35.232Z,13.27
2018-07-10T10:53:04.975Z,15.23
2018-07-10T10:55:36.757Z,23.03
2018-07-10T10:58:06.389Z,11.03
2018-07-10T11:00:39.919Z,13.00
2018-07-10T11:03:09.632Z,11.57
2018-07-10T11:05:39.499Z,12.17
2018-07-10T11:08:10.483Z,11.13
2018-07-10T11:10:39.995Z,11.67
2018-07-10T11:13:09.157Z,10.60
2018-07-10T11:15:45.389Z,10.97
2018-07-10T11:18:22.258Z,12.27
2018-07-10T11:20:55.577Z,12.90
2018-07-10T11:23:53.762Z,13.20
2018-07-10T11:26:35.785Z,12.20
2018-07-10T11:29:05.503Z,14.93
2018-07-10T11:31:34.938Z,13.63
2018-07-10T11:34:04.236Z,13.33
2018-07-10T11:36:32.952Z,13.00
2018-07-10T11:39:07.845Z,12.73
2018-07-10T11:41:40.964Z,12.77
2018-07-10T11:44:10.179Z,12.90
2018-07-10T11:46:40.085Z,13.83
2018-07-10T11:49:10.525Z,12.87
2018-07-10T11:51:40.448Z,12.20
2018-07-10T11:54:09.533Z,11.60
2018-07-10T11:56:40.247Z,11.67
2018-07-10T11:59:09.087Z,11.97
2018-07-10T12:01:38.957Z,11.57
2018-07-10T12:04:09.970Z,10.80
2018-07-10T12:06:47.444Z,12.20
2018-07-10T12:09:17.712Z,10.37
2018-07-10T12:11:46.668Z,9.90
2018-07-10T12:14:17.332Z,12.60
2018-07-10T12:16:47.386Z,10.60
2018-07-10T12:19:16.872Z,10.30
2018-07-10T12:21:46.185Z,9.50
2018-07-10T12:24:16.639Z,9.60
2018-07-10T12:26:46.628Z,9.40
2018-07-10T12:29:17.016Z,10.30
2018-07-10T12:31:46.878Z,9.07
2018-07-10T12:34:17.214Z,8.90
2018-07-10T12:36:48.111Z,9.33
2018-07-10T12:39:18.758Z,9.30
2018-07-10T12:41:48.707Z,8.80
2018-07-10T12:44:18.056Z,9.80
2018-07-10T12:46:49.067Z,9.20
2018-07-10T12:49:19.121Z,8.87
2018-07-10T12:51:52.069Z,9.67
2018-07-10T12:54:20.886Z,8.73
2018-07-10T12:56:51.352Z,9.37
2018-07-10T12:59:20.577Z,8.93
2018-07-10T13:01:51.477Z,9.30
2018-07-10T13:04:21.311Z,10.13
2018-07-10T13:06:51.411Z,9.13
2018-07-10T13:09:23.302Z,9.10
2018-07-10T13:11:52.692Z,9.10
2018-07-10T13:14:21.500Z,9.30
2018-07-10T13:16:50.320Z,8.20
2018-07-10T13:19:20.837Z,9.00
2018-07-10T13:21:51.358Z,8.80
2018-07-10T13:24:20.159Z,8.60
2018-07-10T13:26:48.781Z,8.83
2018-07-10T13:29:17.821Z,7.90
2018-07-10T13:31:47.248Z,8.50
2018-07-10T13:34:15.984Z,7.87
2018-07-10T13:36:45.374Z,7.93
2018-07-10T13:39:14.193Z,13.20
2018-07-10T13:41:43.939Z,8.33
2018-07-10T13:44:12.914Z,9.10
2018-07-10T13:46:42.879Z,7.90
2018-07-10T13:49:11.631Z,8.20
2018-07-10T13:51:40.327Z,7.83
2018-07-10T13:54:08.975Z,7.50
2018-07-10T13:56:38.273Z,8.70
2018-07-10T13:59:07.242Z,7.07
2018-07-10T14:01:36.371Z,7.50
2018-07-10T14:04:05.776Z,6.70
2018-07-10T14:06:35.173Z,7.00
2018-07-10T14:09:05.100Z,6.57
2018-07-10T14:11:35.486Z,6.40
2018-07-10T14:14:05.590Z,5.70
2018-07-10T14:16:35.118Z,5.90
2018-07-10T14:19:04.386Z,5.70
2018-07-10T14:21:35.238Z,5.27
2018-07-10T14:24:04.671Z,5.17
2018-07-10T14:26:35.822Z,5.30
2018-07-10T14:29:06.104Z,5.10
2018-07-10T14:31:35.020Z,5.03
2018-07-10T14:34:04.480Z,5.57
2018-07-10T14:36:34.067Z,4.77
2018-07-10T14:39:03.425Z,5.17
2018-07-10T14:41:33.306Z,6.07
2018-07-10T14:44:03.822Z,5.50
2018-07-10T14:46:33.298Z,5.30
2018-07-10T14:49:03.712Z,5.50
2018-07-10T14:51:40.315Z,5.77
2018-07-10T14:54:09.650Z,5.10
2018-07-10T14:56:38.912Z,5.40
2018-07-10T14:59:08.760Z,5.00
2018-07-10T15:01:38.477Z,5.13
2018-07-10T15:04:09.427Z,5.57
2018-07-10T15:06:38.522Z,5.23
2018-07-10T15:09:09.230Z,6.00
2018-07-10T15:11:38.786Z,6.17
2018-07-10T15:14:09.618Z,5.37
2018-07-10T15:16:44.259Z,5.67
2018-07-10T15:19:15.289Z,5.43
2018-07-10T15:21:45.004Z,5.77
2018-07-10T15:24:13.982Z,6.07
2018-07-10T15:26:43.409Z,5.43
2018-07-10T15:29:17.889Z,5.70
2018-07-10T15:31:46.714Z,5.47
2018-07-10T15:34:16.077Z,5.70
2018-07-10T15:36:45.605Z,4.83
2018-07-10T15:39:15.790Z,4.60
2018-07-10T15:41:44.965Z,4.77
2018-07-10T15:44:14.435Z,4.53
2018-07-10T15:46:45.262Z,4.00
2018-07-10T15:49:14.683Z,5.37
2018-07-10T15:51:44.052Z,4.10
2018-07-10T15:54:12.940Z,4.90
2018-07-10T15:56:43.296Z,4.90
2018-07-10T15:59:12.708Z,4.50
2018-07-10T16:01:42.281Z,4.37
2018-07-10T16:04:12.100Z,4.40
2018-07-10T16:06:42.752Z,4.60
2018-07-10T16:09:20.046Z,4.10
2018-07-10T16:11:58.723Z,4.23
2018-07-10T16:14:29.824Z,4.43
2018-07-10T16:16:59.359Z,4.27
2018-07-10T16:19:34.332Z,4.20
2018-07-10T16:22:08.737Z,5.20
2018-07-10T16:24:47.677Z,4.67
2018-07-10T16:27:21.909Z,4.40
2018-07-10T16:29:50.629Z,3.87
2018-07-10T16:32:19.992Z,4.00
2018-07-10T16:34:49.010Z,3.90
2018-07-10T16:37:18.305Z,3.80
2018-07-10T16:39:48.230Z,4.03
2018-07-10T16:42:22.831Z,3.63
2018-07-10T16:44:52.473Z,3.77
2018-07-10T16:47:28.645Z,3.50
2018-07-10T16:50:00.802Z,3.23
2018-07-10T16:52:35.126Z,3.70
2018-07-10T16:55:04.230Z,3.50
2018-07-10T16:57:34.644Z,3.70
2018-07-10T17:00:04.025Z,3.70
2018-07-10T17:02:33.419Z,3.67
2018-07-10T17:05:02.396Z,3.53
2018-07-10T17:07:31.141Z,4.03
2018-07-10T17:10:00.347Z,4.20
2018-07-10T17:12:29.593Z,3.60
2018-07-10T17:14:59.768Z,4.13
2018-07-10T17:17:28.972Z,3.70
2018-07-10T17:19:58.809Z,3.60
2018-07-10T17:22:28.326Z,4.23
2018-07-10T17:24:57.195Z,3.50
2018-07-10T17:27:30.293Z,3.50
2018-07-10T17:29:59.396Z,3.70
2018-07-10T17:32:28.339Z,3.50
2018-07-10T17:34:57.120Z,3.40
2018-07-10T17:37:25.887Z,3.10
2018-07-10T17:39:54.620Z,2.87
2018-07-10T17:42:23.392Z,3.80
2018-07-10T17:44:52.033Z,4.00
2018-07-10T17:47:20.866Z,3.60
2018-07-10T17:49:49.644Z,3.23
2018-07-10T17:52:18.725Z,2.80
2018-07-10T17:54:47.470Z,3.40
2018-07-10T17:57:16.314Z,2.87
2018-07-10T17:59:45.214Z,3.43
2018-07-10T18:02:13.948Z,3.33
2018-07-10T18:04:42.967Z,3.20
2018-07-10T18:07:11.778Z,3.20
2018-07-10T18:09:40.549Z,3.03
2018-07-10T18:12:09.332Z,2.90
2018-07-10T18:14:38.077Z,2.80
2018-07-10T18:17:06.869Z,3.27
2018-07-10T18:19:35.625Z,2.67
2018-07-10T18:22:04.347Z,3.40
2018-07-10T18:24:33.335Z,2.93
2018-07-10T18:27:02.509Z,3.33
2018-07-10T18:29:33.140Z,3.50
2018-07-10T18:32:02.081Z,3.10
2018-07-10T18:34:30.769Z,3.00
2018-07-10T18:36:59.509Z,3.00
2018-07-10T18:39:28.483Z,3.70
2018-07-10T18:41:58.683Z,3.63
2018-07-10T18:44:27.550Z,3.23
2018-07-10T18:46:56.341Z,3.30
2018-07-10T18:49:25.197Z,3.20
2018-07-10T18:51:54.661Z,3.43
2018-07-10T18:54:33.955Z,3.20
2018-07-10T18:57:13.348Z,3.40
2018-07-10T18:59:44.510Z,3.70
2018-07-10T19:02:21.692Z,3.13
2018-07-10T19:04:56.457Z,3.60
2018-07-10T19:07:25.373Z,3.20
2018-07-10T19:09:54.715Z,3.17
2018-07-10T19:12:23.828Z,3.13
2018-07-10T19:14:53.809Z,3.30
2018-07-10T19:17:27.933Z,3.50
2018-07-10T19:20:12.708Z,3.30
2018-07-10T19:22:52.840Z,3.80
2018-07-10T19:25:22.091Z,3.97
2018-07-10T19:27:51.829Z,3.50
2018-07-10T19:30:24.222Z,3.40
2018-07-10T19:32:54.147Z,3.57
2018-07-10T19:35:23.621Z,3.80
2018-07-10T19:37:53.773Z,3.53
2018-07-10T19:40:22.581Z,3.47
2018-07-10T19:42:51.409Z,3.97
2018-07-10T19:45:20.527Z,3.43
2018-07-10T19:47:49.843Z,3.83
2018-07-10T19:50:20.445Z,3.43
2018-07-10T19:52:54.269Z,3.10
2018-07-10T19:55:26.741Z,3.30
2018-07-10T19:58:05.031Z,3.30
2018-07-10T20:00:38.006Z,3.50
2018-07-10T20:03:07.759Z,3.40
2018-07-10T20:05:37.100Z,3.73
2018-07-10T20:08:18.454Z,3.17
2018-07-10T20:10:54.171Z,3.47
2018-07-10T20:13:30.907Z,3.40
2018-07-10T20:16:04.665Z,3.30
2018-07-10T20:18:48.270Z,3.90
2018-07-10T20:21:28.979Z,3.40
2018-07-10T20:24:05.772Z,3.57
2018-07-10T20:26:46.396Z,3.23
2018-07-10T20:29:30.608Z,3.47
2018-07-10T20:32:04.108Z,3.43
2018-07-10T20:35:43.623Z,3.70
2018-07-10T20:38:19.764Z,3.70
2018-07-10T20:40:48.930Z,3.87
2018-07-10T20:43:19.540Z,3.97
2018-07-10T20:45:54.093Z,3.83
2018-07-10T20:49:02.136Z,3.70
2018-07-10T20:51:39.553Z,3.30
2018-07-10T20:54:18.462Z,3.80
2018-07-10T20:57:01.449Z,3.43
2018-07-10T20:59:38.792Z,3.63
2018-07-10T21:02:09.687Z,3.30
2018-07-10T21:04:46.516Z,3.80
2018-07-10T21:07:31.117Z,3.60
2018-07-10T21:10:06.456Z,3.37
2018-07-10T21:12:44.401Z,3.17
2018-07-10T21:15:22.965Z,3.30
2018-07-10T21:17:58.879Z,3.30
2018-07-10T21:20:37.153Z,3.70
2018-07-10T21:23:12.746Z,3.60
2018-07-10T21:25:47.109Z,3.40
2018-07-10T21:28:56.107Z,3.10
2018-07-10T21:31:32.305Z,3.20
2018-07-10T21:34:21.176Z,3.80
2018-07-10T21:38:57.189Z,3.40
2018-07-10T21:42:50.483Z,3.53
2018-07-10T21:45:29.726Z,3.60
2018-07-10T21:48:10.629Z,3.33
2018-07-10T21:50:47.877Z,3.70
2018-07-10T21:53:19.963Z,3.80
2018-07-10T21:55:49.012Z,3.80
2018-07-10T21:58:20.056Z,3.10
2018-07-10T22:02:02.601Z,3.30
2018-07-10T22:04:38.447Z,3.43
2018-07-10T22:07:11.151Z,4.03
2018-07-10T22:09:40.810Z,3.60
2018-07-10T22:12:18.239Z,3.53
2018-07-10T22:14:47.934Z,4.20
2018-07-10T22:17:25.258Z,3.67
2018-07-10T22:19:55.682Z,3.23
2018-07-10T22:22:26.865Z,3.77
2018-07-10T22:24:58.271Z,3.60
2018-07-10T22:27:27.195Z,3.80
2018-07-10T22:30:03.866Z,4.00
2018-07-10T22:32:43.358Z,3.37
2018-07-10T22:35:12.279Z,3.90
2018-07-10T22:37:41.358Z,3.73
2018-07-10T22:40:10.782Z,4.23
2018-07-10T22:42:40.601Z,3.77
2018-07-10T22:45:10.196Z,3.40
2018-07-10T22:47:41.102Z,3.57
2018-07-10T22:50:14.064Z,3.90
2018-07-10T22:52:47.927Z,3.47
2018-07-10T22:55:20.642Z,3.60
2018-07-10T22:57:50.753Z,3.30
2018-07-10T23:00:34.474Z,4.10
2018-07-10T23:03:16.174Z,3.60
2018-07-10T23:05:45.366Z,3.90
2018-07-10T23:08:15.536Z,3.30
2018-07-10T23:10:45.644Z,3.30
2018-07-10T23:13:15.753Z,3.67
2018-07-10T23:15:45.710Z,3.50
2018-07-10T23:18:15.911Z,3.20
2018-07-10T23:20:45.151Z,3.37
2018-07-10T23:23:14.029Z,3.43
2018-07-10T23:25:42.752Z,3.70
2018-07-10T23:28:11.708Z,3.60
2018-07-10T23:30:42.154Z,3.80
2018-07-10T23:33:15.871Z,3.47
2018-07-10T23:36:16.355Z,3.93
2018-07-10T23:38:58.019Z,3.57
2018-07-10T23:41:38.423Z,3.47
2018-07-10T23:44:09.433Z,4.17
2018-07-10T23:46:45.747Z,3.20
2018-07-10T23:49:16.793Z,3.60
2018-07-10T23:51:57.018Z,3.20
2018-07-10T23:54:26.431Z,3.80
2018-07-10T23:56:56.419Z,3.13
2018-07-10T23:59:26.482Z,3.10
